Time;durP1;ratioP1;P1;durP2;ratioP2;P2;SDS_P1;SDS_P2;PMS_P1;PMS_P2;Temp;Humidity;BMP_temperature;BMP_pressure;BME280_temperature;BME280_humidity;BME280_pressure;Samples;Min_cycle;Max_cycle;Signal;HPM_P1;HPM_P2
2022/04/02 00:02:12;;;;;;;4.30;2.90;;;;;;;4.73;100.00;97232.09;108409;1284;137643;-58
2022/04/02 00:04:40;;;;;;;3.80;3.10;;;;;;;4.73;100.00;97238.29;108526;1284;22478;-58
2022/04/02 00:07:09;;;;;;;6.80;3.80;;;;;;;4.72;100.00;97241.26;108425;1284;137849;-58
2022/04/02 00:09:57;;;;;;;;;;;;;;;4.71;100.00;97248.59;108540;1284;22547;-58
2022/04/02 00:12:25;;;;;;;;;;;;;;;4.70;100.00;97253.17;108533;1284;22444;-58
2022/04/02 00:14:53;;;;;;;3.80;2.70;;;;;;;4.68;100.00;97254.27;108474;1282;124156;-58
2022/04/02 00:17:23;;;;;;;6.20;3.60;;;;;;;4.67;100.00;97258.15;108582;1282;22440;-58
2022/04/02 00:19:54;;;;;;;5.80;2.90;;;;;;;4.67;100.00;97261.81;108451;1283;138155;-58
2022/04/02 00:22:22;;;;;;;4.40;2.70;;;;;;;4.68;100.00;97269.86;108541;1283;22266;-58
2022/04/02 00:24:50;;;;;;;4.70;3.10;;;;;;;4.69;100.00;97278.55;108542;1282;22625;-58
2022/04/02 00:27:18;;;;;;;3.70;2.60;;;;;;;4.68;100.00;97275.69;108618;1282;139250;-59
2022/04/02 00:29:46;;;;;;;4.50;2.80;;;;;;;4.66;100.00;97267.54;108751;1282;22444;-59
2022/04/02 00:32:14;;;;;;;2.70;2.40;;;;;;;4.65;100.00;97266.78;108695;1281;139450;-59
2022/04/02 00:34:42;;;;;;;4.60;2.90;;;;;;;4.65;100.00;97264.73;108583;1282;22501;-59
2022/04/02 00:37:12;;;;;;;3.90;2.80;;;;;;;4.62;99.99;97270.68;108711;1282;139189;-59
2022/04/02 00:39:40;;;;;;;4.00;3.10;;;;;;;4.59;100.00;97278.63;108729;1281;22525;-59
2022/04/02 00:42:09;;;;;;;4.30;2.80;;;;;;;4.57;100.00;97287.70;108730;1282;23341;-59
2022/04/02 00:44:39;;;;;;;4.00;2.40;;;;;;;4.52;99.91;97297.23;108642;1281;139676;-59
2022/04/02 00:47:08;;;;;;;5.20;2.80;;;;;;;4.47;99.70;97296.19;108510;1282;23175;-60
2022/04/02 00:49:36;;;;;;;3.60;2.60;;;;;;;4.45;99.91;97290.00;108661;1281;138754;-59
2022/04/02 00:52:04;;;;;;;3.60;2.90;;;;;;;4.47;99.83;97280.34;108603;1282;22449;-60
2022/04/02 00:54:32;;;;;;;4.70;2.90;;;;;;;4.47;99.76;97265.71;108725;1281;23156;-59
2022/04/02 00:57:04;;;;;;;3.90;2.90;;;;;;;4.47;99.78;97252.70;108962;1278;139373;-59
2022/04/02 00:59:39;;;;;;;;;;;;;;;4.46;99.59;97243.40;109268;1274;22492;-59
2022/04/02 01:02:07;;;;;;;;;;;;;;;4.43;99.64;97244.00;109061;1277;124690;-59
2022/04/02 01:04:41;;;;;;;5.20;2.50;;;;;;;4.40;99.50;97247.56;109332;1274;22498;-59
2022/04/02 01:07:10;;;;;;;3.50;2.90;;;;;;;4.40;99.50;97248.86;109247;1273;139267;-59
2022/04/02 01:09:40;;;;;;;4.60;2.70;;;;;;;4.40;99.61;97252.20;109371;1273;22517;-60
2022/04/02 01:12:09;;;;;;;3.70;2.60;;;;;;;4.40;99.49;97257.96;109296;1273;22585;-59
2022/04/02 01:14:40;;;;;;;3.40;2.40;;;;;;;4.41;99.47;97255.64;109174;1273;140131;-59
2022/04/02 01:17:22;;;;;;;4.10;2.10;;;;;;;4.42;99.65;97254.14;109435;1273;22468;-59
2022/04/02 01:19:50;;;;;;;3.10;2.40;;;;;;;4.42;99.57;97269.88;109307;1272;138765;-60
2022/04/02 01:22:24;;;;;;;3.00;2.10;;;;;;;4.43;99.43;97275.16;109277;1273;22511;-59
2022/04/02 01:24:54;;;;;;;3.40;2.30;;;;;;;4.43;99.17;97275.60;109188;1274;138229;-60
2022/04/02 01:27:24;;;;;;;2.80;2.20;;;;;;;4.44;99.08;97280.19;109257;1274;22345;-58
2022/04/02 01:29:56;;;;;;;2.50;1.90;;;;;;;4.43;99.04;97278.89;109044;1276;22434;-59
2022/04/02 01:32:24;;;;;;;2.40;2.00;;;;;;;4.42;99.10;97267.46;109282;1274;137712;-58
2022/04/02 01:35:02;;;;;;;4.80;2.40;;;;;;;4.41;98.71;97254.35;109321;1274;23693;-58
2022/04/02 01:37:31;;;;;;;3.20;1.60;;;;;;;4.39;98.51;97232.47;109119;1274;138501;-59
2022/04/02 01:40:03;;;;;;;3.10;2.10;;;;;;;4.36;98.49;97229.83;109341;1274;22434;-58
2022/04/02 01:42:38;;;;;;;3.00;1.90;;;;;;;4.33;98.27;97231.79;109306;1274;22433;-58
2022/04/02 01:45:13;;;;;;;2.00;1.60;;;;;;;4.31;98.20;97226.73;109178;1274;137527;-58
2022/04/02 01:47:53;;;;;;;;;;;;;;;4.28;98.14;97222.86;109171;1276;22464;-58
2022/04/02 01:50:25;;;;;;;3.00;1.60;;;;;;;4.27;97.94;97223.13;109159;1274;125137;-58
2022/04/02 01:52:54;;;;;;;2.50;1.60;;;;;;;4.25;98.21;97222.10;109388;1274;22453;-58
2022/04/02 01:55:22;;;;;;;2.10;1.60;;;;;;;4.23;97.97;97219.73;108880;1274;139418;-59
2022/04/02 01:57:55;;;;;;;2.00;1.60;;;;;;;4.22;98.00;97224.05;109274;1276;22391;-58
2022/04/02 02:00:30;;;;;;;2.00;1.50;;;;;;;4.21;97.96;97227.44;109222;1274;22446;-58
2022/04/02 02:03:01;;;;;;;2.60;1.80;;;;;;;4.20;97.73;97230.25;109336;1274;137744;-58
2022/04/02 02:05:29;;;;;;;3.20;1.60;;;;;;;4.20;97.82;97245.06;109122;1277;24327;-59
2022/04/02 02:07:58;;;;;;;2.20;1.50;;;;;;;4.21;97.84;97245.27;109220;1274;139195;-58
2022/04/02 02:11:07;;;;;;;1.90;1.30;;;;;;;4.21;97.64;97231.48;109260;1276;22301;-58
2022/04/02 02:13:53;;;;;;;1.70;1.30;;;;;;;4.20;97.30;97216.50;109301;1274;137504;-58
2022/04/02 02:16:24;;;;;;;1.70;1.30;;;;;;;4.18;97.56;97209.46;109366;1274;22634;-59
2022/04/02 02:18:54;;;;;;;1.50;1.20;;;;;;;4.15;97.09;97208.77;109248;1274;138520;-58
2022/04/02 02:21:23;;;;;;;1.80;1.50;;;;;;;4.14;97.23;97217.07;109251;1276;22512;-58
2022/04/02 02:23:52;;;;;;;1.50;1.30;;;;;;;4.16;97.15;97216.64;109272;1276;23135;-58
2022/04/02 02:26:20;;;;;;;5.70;1.40;;;;;;;4.17;97.22;97215.34;107060;1275;137603;-58
2022/04/02 02:28:49;;;;;;;1.70;1.50;;;;;;;4.16;97.11;97207.85;109171;1276;22249;-58
2022/04/02 02:31:25;;;;;;;2.40;1.80;;;;;;;4.17;96.86;97200.20;109145;1273;141014;-58
2022/04/02 02:36:49;;;;;;;2.10;1.50;;;;;;;4.13;96.92;97194.91;109374;1273;23449;-59
2022/04/02 02:39:18;;;;;;;3.40;2.00;;;;;;;4.10;96.79;97191.73;109100;1274;138560;-58
2022/04/02 02:41:56;;;;;;;1.30;1.10;;;;;;;4.06;96.60;97182.52;109268;1274;22394;-59
2022/04/02 02:44:34;;;;;;;1.80;1.40;;;;;;;4.04;96.73;97172.74;109286;1273;137696;-58
2022/04/02 02:47:12;;;;;;;2.90;1.60;;;;;;;4.03;96.44;97161.81;109334;1274;23117;-58
2022/04/02 02:49:42;;;;;;;1.60;1.30;;;;;;;4.02;96.90;97168.17;109188;1274;138786;-58
2022/04/02 02:52:13;;;;;;;1.90;1.40;;;;;;;4.01;96.79;97174.10;109225;1274;22399;-58
2022/04/02 02:54:43;;;;;;;1.60;1.40;;;;;;;4.00;96.68;97177.92;109465;1273;22509;-58
2022/04/02 02:57:11;;;;;;;2.20;1.60;;;;;;;4.02;96.74;97177.83;109296;1273;137822;-58
2022/04/02 02:59:40;;;;;;;2.20;1.50;;;;;;;4.02;96.78;97186.06;109295;1274;23360;-58
2022/04/02 03:02:11;;;;;;;1.80;1.60;;;;;;;4.03;96.81;97191.66;109195;1274;137784;-58
2022/04/02 03:04:42;;;;;;;2.40;1.50;;;;;;;4.03;97.03;97197.33;109340;1274;23267;-58
2022/04/02 03:07:16;;;;;;;1.50;1.30;;;;;;;4.03;96.79;97201.85;109081;1277;139223;-58
2022/04/02 03:09:45;;;;;;;3.50;1.40;;;;;;;4.04;96.98;97199.14;109453;1274;23747;-58
2022/04/02 03:12:14;;;;;;;2.30;1.60;;;;;;;4.06;96.79;97206.77;109311;1272;22344;-58
2022/04/02 03:14:43;;;;;;;1.60;1.40;;;;;;;4.09;96.88;97205.27;109067;1276;138466;-58
2022/04/02 03:17:31;;;;;;;;;;;;;;;4.10;96.65;97202.84;109381;1274;22484;-59
2022/04/02 03:20:00;;;;;;;2.30;1.50;;;;;;;4.10;97.10;97201.17;109214;1274;124689;-58
2022/04/02 03:22:35;;;;;;;2.50;1.50;;;;;;;4.08;96.61;97199.55;109312;1274;22434;-58
2022/04/02 03:25:04;;;;;;;2.50;2.00;;;;;;;4.09;96.50;97188.73;109174;1274;139203;-58
2022/04/02 03:27:32;;;;;;;2.30;2.00;;;;;;;4.09;96.58;97179.83;109203;1276;23756;-58
2022/04/02 03:30:01;;;;;;;2.00;1.80;;;;;;;4.07;96.33;97177.67;109025;1277;22243;-58
2022/04/02 03:32:30;;;;;;;3.60;1.90;;;;;;;4.05;96.23;97172.73;109091;1277;137983;-58
2022/04/02 03:34:59;;;;;;;2.10;1.80;;;;;;;4.02;96.51;97152.33;109269;1275;23241;-58
2022/04/02 03:37:28;;;;;;;2.50;1.70;;;;;;;4.00;96.31;97154.00;109112;1277;138219;-58
2022/04/02 03:39:56;;;;;;;1.80;1.60;;;;;;;3.98;96.32;97156.27;109225;1276;22543;-58
2022/04/02 03:42:25;;;;;;;2.80;2.10;;;;;;;3.93;95.93;97150.55;109267;1275;22414;-59
2022/04/02 03:44:56;;;;;;;3.00;2.10;;;;;;;3.90;96.14;97144.90;109117;1277;139747;-58
2022/04/02 03:47:25;;;;;;;3.20;1.90;;;;;;;3.89;95.92;97145.62;109220;1277;24308;-59
2022/04/02 03:49:54;;;;;;;5.80;2.00;;;;;;;3.89;96.22;97142.17;109130;1277;138442;-58
2022/04/02 03:52:56;;;;;;;2.40;1.90;;;;;;;3.87;95.92;97132.92;109182;1276;22479;-58
2022/04/02 03:55:34;;;;;;;2.50;1.70;;;;;;;3.86;96.16;97128.66;109073;1277;137839;-58
2022/04/02 03:58:07;;;;;;;1.80;1.60;;;;;;;3.85;95.99;97119.73;109213;1277;22538;-58
2022/04/02 04:00:36;;;;;;;3.00;1.50;;;;;;;3.85;96.27;97110.83;109291;1276;22407;-58
2022/04/02 04:03:08;;;;;;;3.10;1.90;;;;;;;3.86;96.21;97119.29;109149;1277;138762;-59
2022/04/02 04:05:42;;;;;;;2.00;1.70;;;;;;;3.87;95.98;97131.95;109270;1276;23660;-61
2022/04/02 04:08:10;;;;;;;9.00;2.10;;;;;;;3.87;96.13;97136.73;109115;1276;138028;-61
2022/04/02 04:10:41;;;;;;;2.40;1.70;;;;;;;3.88;96.07;97131.36;109234;1276;22478;-61
2022/04/02 04:13:10;;;;;;;4.40;2.00;;;;;;;3.87;95.96;97126.40;109140;1276;139958;-61
2022/04/02 04:15:40;;;;;;;2.60;2.00;;;;;;;3.85;95.78;97121.44;109230;1276;22506;-61
2022/04/02 04:18:10;;;;;;;2.50;1.90;;;;;;;3.85;95.89;97118.16;109237;1275;22460;-61
2022/04/02 04:20:40;;;;;;;4.30;2.20;;;;;;;3.85;95.89;97120.95;109049;1277;137983;-61
2022/04/02 04:23:10;;;;;;;4.50;1.90;;;;;;;3.84;95.97;97118.27;109221;1277;22442;-62
2022/04/02 04:25:39;;;;;;;3.20;2.10;;;;;;;3.84;95.87;97112.45;109070;1274;139406;-61
2022/04/02 04:28:09;;;;;;;5.60;2.40;;;;;;;3.85;95.82;97115.14;109293;1274;23479;-61
2022/04/02 04:30:38;;;;;;;7.70;2.20;;;;;;;3.85;95.66;97119.29;109295;1274;23182;-61
2022/04/02 04:33:07;;;;;;;4.30;2.50;;;;;;;3.85;95.84;97119.56;109197;1274;137662;-61
2022/04/02 04:35:35;;;;;;;4.90;2.20;;;;;;;3.84;95.85;97119.83;108581;1274;25274;-58
2022/04/02 04:38:05;;;;;;;7.10;2.30;;;;;;;3.85;95.87;97120.85;109231;1274;139658;-58
2022/04/02 04:40:33;;;;;;;5.90;1.90;;;;;;;3.84;95.73;97126.51;109293;1274;22518;-58
2022/04/02 04:43:03;;;;;;;3.80;2.10;;;;;;;3.83;95.94;97129.20;109193;1274;138595;-58
2022/04/02 04:45:35;;;;;;;5.00;2.20;;;;;;;3.80;95.59;97122.25;109282;1274;22465;-59
2022/04/02 04:48:04;;;;;;;5.80;2.50;;;;;;;3.77;95.48;97124.36;109349;1274;23324;-58
2022/04/02 04:50:39;;;;;;;4.70;2.00;;;;;;;3.76;95.50;97130.55;109221;1274;139741;-58
2022/04/02 04:53:10;;;;;;;8.30;2.30;;;;;;;3.74;95.72;97124.27;109254;1276;22421;-58
2022/04/02 04:55:40;;;;;;;8.40;3.30;;;;;;;3.73;95.41;97115.83;109178;1274;139343;-58
2022/04/02 04:58:11;;;;;;;6.10;2.00;;;;;;;3.72;95.51;97118.73;109303;1275;22469;-58
2022/04/02 05:00:42;;;;;;;3.90;2.30;;;;;;;3.72;95.56;97121.31;109292;1275;22800;-58
2022/04/02 05:03:10;;;;;;;5.30;2.50;;;;;;;3.72;95.64;97127.02;109197;1274;139116;-58
2022/04/02 05:05:44;;;;;;;9.10;2.10;;;;;;;3.71;95.69;97130.69;109304;1274;23331;-58
2022/04/02 05:08:17;;;;;;;6.00;2.00;;;;;;;3.71;95.75;97128.91;109162;1274;138954;-58
2022/04/02 05:10:46;;;;;;;8.60;2.60;;;;;;;3.72;95.70;97128.59;109273;1276;22509;-58
2022/04/02 05:13:20;;;;;;;3.80;2.40;;;;;;;3.71;95.80;97122.28;109158;1274;138871;-59
2022/04/02 05:15:52;;;;;;;7.40;2.90;;;;;;;3.69;95.76;97129.73;108061;1274;23110;-58
2022/04/02 05:18:23;;;;;;;11.90;3.90;;;;;;;3.68;95.80;97126.59;109280;1274;22427;-59
2022/04/02 05:20:54;;;;;;;7.40;2.70;;;;;;;3.66;95.89;97129.29;109179;1274;138126;-58
2022/04/02 05:23:22;;;;;;;7.00;2.70;;;;;;;3.65;95.97;97126.92;109226;1276;22490;-58
2022/04/02 05:25:55;;;;;;;7.20;2.90;;;;;;;3.66;96.06;97130.36;109225;1274;137870;-58
2022/04/02 05:28:27;;;;;;;7.20;2.60;;;;;;;3.68;96.01;97122.13;109235;1276;22354;-58
2022/04/02 05:30:56;;;;;;;8.10;2.60;;;;;;;3.68;95.97;97122.77;109308;1276;22540;-58
2022/04/02 05:33:28;;;;;;;9.70;3.00;;;;;;;3.69;96.02;97125.90;109230;1273;137362;-58
2022/04/02 05:36:12;;;;;;;4.30;2.60;;;;;;;3.67;96.11;97116.95;109328;1274;22365;-58
2022/04/02 05:38:40;;;;;;;9.30;3.00;;;;;;;3.66;96.07;97117.44;109181;1276;138187;-58
2022/04/02 05:41:09;;;;;;;8.80;2.90;;;;;;;3.64;95.90;97116.36;109320;1274;22553;-58
2022/04/02 05:43:37;;;;;;;13.90;3.40;;;;;;;3.64;95.97;97123.96;109193;1276;138647;-59
2022/04/02 05:46:07;;;;;;;9.00;3.40;;;;;;;3.66;96.31;97123.30;109294;1274;22373;-59
2022/04/02 05:48:35;;;;;;;8.00;3.30;;;;;;;3.69;96.16;97119.75;109382;1274;22270;-58
2022/04/02 05:51:04;;;;;;;7.30;2.80;;;;;;;3.67;95.93;97115.29;109252;1274;138246;-58
2022/04/02 05:53:32;;;;;;;12.90;3.70;;;;;;;3.66;96.22;97119.96;109386;1274;22687;-57
2022/04/02 05:56:01;;;;;;;8.70;3.60;;;;;;;3.63;95.93;97118.57;109280;1274;138006;-58
2022/04/02 05:58:30;;;;;;;11.10;4.80;;;;;;;3.60;96.05;97116.83;109405;1274;22486;-58
2022/04/02 06:00:58;;;;;;;8.10;3.50;;;;;;;3.59;96.27;97113.98;109393;1274;22521;-57
2022/04/02 06:03:26;;;;;;;6.10;2.90;;;;;;;3.59;96.21;97109.92;109300;1274;138097;-58
2022/04/02 06:05:54;;;;;;;6.60;3.90;;;;;;;3.59;96.23;97111.82;109386;1274;22243;-58
2022/04/02 06:08:23;;;;;;;8.30;3.50;;;;;;;3.61;96.41;97112.40;109308;1274;137579;-58
2022/04/02 06:10:51;;;;;;;9.60;4.00;;;;;;;3.65;96.77;97117.91;109366;1274;23545;-58
2022/04/02 06:13:19;;;;;;;9.20;4.50;;;;;;;3.68;96.54;97121.86;109316;1274;138161;-58
2022/04/02 06:15:57;;;;;;;;;;;;;;;3.71;96.61;97121.15;107936;1274;24231;-58
2022/04/02 06:18:25;;;;;;;8.90;3.30;;;;;;;3.72;96.58;97124.12;109438;1274;23303;-58
2022/04/02 06:20:55;;;;;;;7.90;3.60;;;;;;;3.71;96.65;97123.42;109232;1273;137559;-58
2022/04/02 06:23:25;;;;;;;10.80;4.30;;;;;;;3.71;96.51;97127.08;109311;1274;23151;-58
2022/04/02 06:25:54;;;;;;;9.70;3.90;;;;;;;3.71;96.64;97123.52;109248;1274;138306;-58
2022/04/02 06:28:23;;;;;;;9.30;4.30;;;;;;;3.70;96.40;97122.07;109247;1276;22518;-58
2022/04/02 06:30:52;;;;;;;7.60;3.50;;;;;;;3.72;96.61;97123.27;109331;1274;23087;-57
2022/04/02 06:33:21;;;;;;;8.60;2.90;;;;;;;3.73;96.52;97119.70;109118;1276;138789;-58
2022/04/02 06:35:50;;;;;;;7.70;3.30;;;;;;;3.73;96.59;97117.86;109248;1274;22389;-58
2022/04/02 06:38:19;;;;;;;5.50;2.70;;;;;;;3.74;96.83;97119.60;109132;1276;137579;-58
2022/04/02 06:40:47;;;;;;;10.80;3.10;;;;;;;3.73;96.62;97120.73;109402;1274;22366;-57
2022/04/02 06:43:15;;;;;;;4.10;2.80;;;;;;;3.71;96.58;97121.80;109287;1274;139070;-58
2022/04/02 06:45:50;;;;;;;6.40;2.80;;;;;;;3.72;96.67;97128.42;109220;1274;22479;-58
2022/04/02 06:48:18;;;;;;;6.20;2.70;;;;;;;3.73;96.71;97132.95;109334;1274;22540;-58
2022/04/02 06:50:52;;;;;;;7.70;3.70;;;;;;;3.73;96.53;97131.61;109210;1274;137922;-59
2022/04/02 06:53:20;;;;;;;6.40;2.80;;;;;;;3.72;96.71;97127.89;109268;1276;22568;-58
2022/04/02 06:55:48;;;;;;;6.30;3.10;;;;;;;3.72;96.79;97119.00;109280;1274;137917;-58
2022/04/02 06:58:24;;;;;;;7.70;3.30;;;;;;;3.72;96.86;97117.06;109374;1274;22276;-58
2022/04/02 07:00:53;;;;;;;6.20;3.20;;;;;;;3.73;96.83;97114.74;109201;1276;23130;-58
2022/04/02 07:03:22;;;;;;;12.50;3.60;;;;;;;3.75;97.01;97117.05;109215;1274;137866;-58
2022/04/02 07:05:51;;;;;;;7.10;3.40;;;;;;;3.76;96.83;97115.68;109369;1274;22377;-58
2022/04/02 07:08:39;;;;;;;9.50;3.90;;;;;;;3.77;96.97;97119.30;109238;1274;138934;-58
2022/04/02 07:11:29;;;;;;;9.90;3.60;;;;;;;3.76;96.97;97124.89;109336;1274;22448;-58
2022/04/02 07:14:00;;;;;;;6.90;4.10;;;;;;;3.77;96.90;97126.55;109295;1274;138269;-58
2022/04/02 07:16:48;;;;;;;;;;;;;;;3.78;96.94;97126.45;109420;1274;22537;-59
2022/04/02 07:19:22;;;;;;;13.80;5.30;;;;;;;3.78;96.88;97127.48;109239;1274;125589;-58
2022/04/02 07:21:53;;;;;;;6.80;3.90;;;;;;;3.80;97.05;97126.89;109364;1274;22426;-58
2022/04/02 07:24:22;;;;;;;7.10;4.00;;;;;;;3.81;96.98;97125.54;109406;1274;23380;-58
2022/04/02 07:26:53;;;;;;;10.40;4.70;;;;;;;3.78;96.95;97130.50;109345;1274;137663;-58
2022/04/02 07:29:22;;;;;;;7.20;4.10;;;;;;;3.75;96.98;97123.98;109459;1274;23262;-58
2022/04/02 07:31:54;;;;;;;6.50;3.20;;;;;;;3.75;97.21;97120.44;109112;1274;139068;-58
2022/04/02 07:34:25;;;;;;;7.80;3.60;;;;;;;3.76;97.16;97120.05;109353;1275;22543;-58
2022/04/02 07:37:08;;;;;;;8.30;3.40;;;;;;;3.77;97.24;97127.38;109444;1274;22496;-58
2022/04/02 07:39:42;;;;;;;9.80;4.60;;;;;;;3.78;97.23;97134.21;109321;1274;137708;-58
2022/04/02 07:42:23;;;;;;;6.00;3.50;;;;;;;3.77;97.08;97135.08;109414;1274;22499;-58
2022/04/02 07:45:13;;;;;;;5.50;2.90;;;;;;;3.73;97.26;97138.17;109323;1274;138338;-59
2022/04/02 07:47:48;;;;;;;5.30;3.50;;;;;;;3.68;96.99;97139.52;109462;1274;23337;-58
2022/04/02 07:50:18;;;;;;;8.10;4.10;;;;;;;3.63;97.24;97139.79;109141;1274;138331;-58
2022/04/02 07:52:49;;;;;;;5.40;3.40;;;;;;;3.60;97.16;97141.59;109403;1274;22455;-58
2022/04/02 07:55:20;;;;;;;5.30;2.90;;;;;;;3.59;97.33;97142.99;109313;1274;22413;-58
2022/04/02 07:57:51;;;;;;;7.10;3.90;;;;;;;3.61;97.58;97143.52;108993;1274;138569;-58
2022/04/02 08:00:22;;;;;;;8.70;3.70;;;;;;;3.63;97.48;97145.87;109467;1274;22424;-58
2022/04/02 08:02:51;;;;;;;7.70;3.20;;;;;;;3.65;97.68;97146.79;109340;1274;138546;-58
2022/04/02 08:05:25;;;;;;;7.60;4.40;;;;;;;3.66;97.66;97144.64;109446;1274;22239;-58
2022/04/02 08:08:03;;;;;;;8.70;3.20;;;;;;;3.69;97.68;97147.21;109236;1274;137549;-58
2022/04/02 08:10:37;;;;;;;8.90;4.30;;;;;;;3.72;97.90;97150.29;109189;1276;23465;-58
2022/04/02 08:13:06;;;;;;;9.50;5.50;;;;;;;3.75;97.82;97147.21;109391;1276;22522;-59
2022/04/02 08:15:41;;;;;;;9.00;4.50;;;;;;;3.75;97.58;97145.98;109188;1274;138641;-58
2022/04/02 08:18:17;;;;;;;12.60;5.80;;;;;;;3.72;97.52;97147.11;109220;1274;23734;-58
2022/04/02 08:20:46;;;;;;;11.60;6.10;;;;;;;3.70;97.57;97149.43;109217;1274;138549;-59
2022/04/02 08:23:24;;;;;;;7.90;4.20;;;;;;;3.70;97.49;97140.77;109438;1274;22467;-59
2022/04/02 08:26:15;;;;;;;;;;;;;;;3.69;97.48;97138.33;109347;1274;138247;-59
2022/04/02 08:29:00;;;;;;;60.10;38.40;;;;;;;3.68;97.67;97136.50;109287;1274;22531;-59
2022/04/02 08:31:35;;;;;;;79.90;43.40;;;;;;;3.70;97.61;97136.72;109338;1274;140270;-59
2022/04/02 08:34:26;;;;;;;33.30;17.10;;;;;;;3.75;97.78;97141.66;109336;1274;22258;-59
2022/04/02 08:37:02;;;;;;;27.60;8.70;;;;;;;3.80;97.94;97145.15;109184;1276;23497;-59
2022/04/02 08:39:38;;;;;;;41.80;18.20;;;;;;;3.83;97.70;97148.81;109183;1276;140745;-60
2022/04/02 08:42:35;;;;;;;40.70;19.50;;;;;;;3.81;97.92;97152.10;109370;1274;23617;-59
2022/04/02 08:45:09;;;;;;;39.60;13.80;;;;;;;3.84;97.96;97150.54;109240;1273;138493;-59
2022/04/02 08:47:59;;;;;;;40.90;15.40;;;;;;;3.88;97.77;97154.90;109440;1274;23683;-57
2022/04/02 08:50:34;;;;;;;42.40;15.20;;;;;;;3.90;97.84;97162.10;109147;1274;138939;-60
2022/04/02 08:53:21;;;;;;;47.40;15.70;;;;;;;3.88;97.61;97159.95;109447;1274;22355;-59
2022/04/02 08:55:49;;;;;;;56.30;17.10;;;;;;;3.88;97.52;97159.53;109185;1274;138614;-63
2022/04/02 08:58:29;;;;;;;39.10;16.80;;;;;;;3.84;97.37;97156.95;109488;1274;23592;-63
2022/04/02 09:01:08;;;;;;;26.00;9.40;;;;;;;3.85;97.61;97163.95;109324;1275;22423;-62
2022/04/02 09:03:55;;;;;;;22.40;9.00;;;;;;;3.88;97.79;97168.48;109363;1274;138625;-62
2022/04/02 09:06:38;;;;;;;26.20;7.70;;;;;;;3.87;97.58;97171.65;109414;1274;23586;-62
2022/04/02 09:09:15;;;;;;;16.20;7.30;;;;;;;3.86;97.73;97174.88;109142;1274;137869;-62
2022/04/02 09:12:09;;;;;;;15.20;6.20;;;;;;;3.84;97.55;97175.48;109448;1271;22459;-62
2022/04/02 09:14:53;;;;;;;12.40;5.70;;;;;;;3.83;97.63;97178.92;109326;1274;138300;-61
2022/04/02 09:17:35;;;;;;;9.10;5.30;;;;;;;3.84;97.79;97180.48;109262;1274;23127;-62
2022/04/02 09:20:28;;;;;;;8.80;4.50;;;;;;;3.88;97.93;97183.77;109207;1274;138488;-61
2022/04/02 09:23:15;;;;;;;7.60;3.80;;;;;;;3.89;97.56;97181.29;109404;1274;22439;-61
2022/04/02 09:26:13;;;;;;;9.30;4.60;;;;;;;3.84;97.24;97180.86;108124;1275;137862;-61
2022/04/02 09:28:59;;;;;;;9.90;3.90;;;;;;;3.82;97.45;97184.10;104960;1273;25093;-61
2022/04/02 09:31:52;;;;;;;5.90;3.70;;;;;;;3.83;97.42;97179.67;109327;1273;139598;-61
2022/04/02 09:34:47;;;;;;;8.30;3.40;;;;;;;3.85;97.47;97180.80;109479;1273;22242;-61
2022/04/02 09:37:34;;;;;;;10.30;4.40;;;;;;;3.84;97.76;97178.92;109452;1273;22453;-62
2022/04/02 09:40:08;;;;;;;8.40;3.70;;;;;;;3.86;97.83;97183.28;109174;1273;139234;-62
2022/04/02 09:42:44;;;;;;;7.90;3.40;;;;;;;3.90;97.80;97186.34;109441;1273;22430;-62
2022/04/02 09:45:13;;;;;;;7.70;3.70;;;;;;;3.95;97.94;97188.16;109359;1273;137988;-61
2022/04/02 09:47:56;;;;;;;8.00;4.50;;;;;;;3.98;97.81;97186.65;109454;1273;22285;-61
2022/04/02 09:50:26;;;;;;;7.30;3.60;;;;;;;4.04;97.98;97191.05;109293;1273;137823;-61
2022/04/02 09:52:58;;;;;;;10.80;4.10;;;;;;;4.08;97.82;97194.44;109490;1273;23520;-61
2022/04/02 09:55:28;;;;;;;8.20;4.30;;;;;;;4.08;97.72;97199.07;109438;1273;22463;-62
2022/04/02 09:58:28;;;;;;;9.10;4.20;;;;;;;4.06;97.33;97199.61;109367;1273;137607;-61
2022/04/02 10:01:08;;;;;;;9.70;4.20;;;;;;;4.05;97.24;97201.66;108524;1282;22461;-61
2022/04/02 10:04:06;;;;;;;10.30;4.80;;;;;;;4.01;96.92;97204.71;108580;1281;137861;-62
2022/04/02 10:06:43;;;;;;;13.30;7.50;;;;;;;4.00;97.08;97200.98;108478;1282;23167;-58
2022/04/02 10:09:16;;;;;;;14.40;8.70;;;;;;;4.01;96.96;97203.69;108295;1282;138823;-58
2022/04/02 10:11:58;;;;;;;18.90;10.50;;;;;;;4.02;96.81;97203.95;108693;1281;22457;-58
2022/04/02 10:14:28;;;;;;;16.80;8.90;;;;;;;4.07;97.02;97212.75;108573;1281;138491;-58
2022/04/02 10:17:03;;;;;;;28.90;14.00;;;;;;;4.08;96.88;97211.85;108647;1281;23384;-58
2022/04/02 10:19:33;;;;;;;15.00;9.30;;;;;;;4.12;96.67;97213.52;108569;1282;22731;-58
2022/04/02 10:22:06;;;;;;;12.40;7.00;;;;;;;4.14;96.99;97217.17;108510;1282;137848;-58
2022/04/02 10:24:49;;;;;;;11.40;6.10;;;;;;;4.16;96.81;97222.24;108575;1282;23651;-58
2022/04/02 10:27:32;;;;;;;12.30;6.80;;;;;;;4.17;96.59;97223.80;108361;1283;138803;-58
2022/04/02 10:30:00;;;;;;;11.20;5.60;;;;;;;4.18;96.35;97224.60;108534;1282;23377;-58
2022/04/02 10:32:52;;;;;;;9.80;4.60;;;;;;;4.18;96.05;97230.06;108532;1282;139221;-59
2022/04/02 10:35:24;;;;;;;8.10;4.50;;;;;;;4.17;96.15;97230.97;108549;1282;22591;-59
2022/04/02 10:37:57;;;;;;;7.50;4.60;;;;;;;4.16;95.74;97233.98;108669;1274;138059;-59
2022/04/02 10:40:26;;;;;;;9.20;5.30;;;;;;;4.12;95.84;97237.01;109298;1273;244174;-59
2022/04/02 10:43:51;;;;;;;7.50;4.10;;;;;;;4.13;95.63;97243.95;101792;1309;545727;-58
2022/04/02 10:46:21;;;;;;;6.60;3.60;;;;;;;4.14;95.75;97246.02;108270;1286;22580;-58
2022/04/02 10:48:57;;;;;;;7.30;4.90;;;;;;;4.15;95.82;97245.74;108404;1285;22605;-58
2022/04/02 10:51:29;;;;;;;6.90;4.20;;;;;;;4.15;95.45;97245.10;109078;1277;138019;-58
2022/04/02 10:54:07;;;;;;;5.70;3.60;;;;;;;4.11;95.09;97250.32;109306;1277;22632;-59
2022/04/02 10:56:42;;;;;;;6.70;3.80;;;;;;;4.06;95.12;97247.73;109004;1277;184996;-58
2022/04/02 10:59:11;;;;;;;7.40;4.70;;;;;;;4.04;95.38;97248.88;109482;1274;22521;-58
2022/04/02 11:01:44;;;;;;;6.90;3.40;;;;;;;4.06;95.15;97251.02;109466;1272;22486;-58
2022/04/02 11:04:23;;;;;;;6.00;2.80;;;;;;;4.07;95.37;97247.30;109213;1274;138726;-58
2022/04/02 11:06:51;;;;;;;6.10;2.70;;;;;;;4.07;95.25;97244.66;109325;1274;22535;-58
2022/04/02 11:09:33;;;;;;;3.10;2.10;;;;;;;4.08;95.42;97245.36;109196;1274;137213;-58
2022/04/02 11:12:13;;;;;;;4.60;2.40;;;;;;;4.12;95.29;97245.47;109252;1276;23181;-58
2022/04/02 11:14:43;;;;;;;4.50;1.80;;;;;;;4.19;95.34;97247.45;109144;1276;138227;-58
2022/04/02 11:17:35;;;;;;;5.00;2.40;;;;;;;4.25;95.68;97242.80;109242;1275;22592;-58
2022/04/02 11:20:12;;;;;;;8.90;5.30;;;;;;;4.34;95.51;97248.34;109182;1274;138339;-58
2022/04/02 11:22:51;;;;;;;7.20;3.80;;;;;;;4.41;95.37;97249.93;109457;1274;22233;-58
2022/04/02 11:25:31;;;;;;;4.90;3.30;;;;;;;4.46;95.23;97252.29;109503;1274;22453;-58
2022/04/02 11:28:17;;;;;;;3.70;2.40;;;;;;;4.51;94.61;97254.48;109360;1274;137681;-58
2022/04/02 11:30:46;;;;;;;4.00;2.10;;;;;;;4.51;94.09;97255.02;109451;1274;24205;-58
2022/04/02 11:33:26;;;;;;;3.60;1.50;;;;;;;4.51;93.54;97253.18;109282;1274;138968;-58
2022/04/02 11:35:57;;;;;;;4.70;1.90;;;;;;;4.51;93.22;97253.77;109471;1274;22376;-63
2022/04/02 11:38:35;;;;;;;4.10;2.30;;;;;;;4.54;93.14;97253.30;109122;1277;137502;-61
2022/04/02 11:41:13;;;;;;;2.80;1.80;;;;;;;4.56;93.01;97253.88;109434;1274;23068;-61
2022/04/02 11:43:43;;;;;;;2.10;1.60;;;;;;;4.56;92.61;97255.34;109426;1274;22428;-61
2022/04/02 11:46:13;;;;;;;3.10;1.80;;;;;;;4.54;92.32;97257.92;109017;1276;137509;-62
2022/04/02 11:48:54;;;;;;;2.70;2.00;;;;;;;4.51;92.32;97257.45;109275;1276;23183;-61
2022/04/02 11:51:23;;;;;;;4.00;2.40;;;;;;;4.47;91.92;97263.11;109247;1274;137508;-61
2022/04/02 11:53:52;;;;;;;2.10;1.80;;;;;;;4.47;92.00;97263.67;109434;1274;22275;-62
2022/04/02 11:56:25;;;;;;;6.40;2.60;;;;;;;4.47;91.97;97261.67;109237;1276;137542;-61
2022/04/02 11:58:57;;;;;;;2.70;1.90;;;;;;;4.47;91.82;97267.39;109408;1276;22432;-62
2022/04/02 12:01:25;;;;;;;4.60;2.60;;;;;;;4.48;91.75;97264.30;109402;1276;22674;-61
2022/04/02 12:04:07;;;;;;;3.40;2.20;;;;;;;4.49;91.73;97268.39;109302;1276;137257;-62